sensor_id;sensor_type;location;lat;lon;timestamp;P1;durP1;ratioP1;P2;durP2;ratioP2
19521;SDS011;9905;52.126;5.596;2024-02-26T00:00:11;12.40;;;11.63;;
19521;SDS011;9905;52.126;5.596;2024-02-26T00:02:39;11.07;;;10.57;;
19521;SDS011;9905;52.126;5.596;2024-02-26T00:05:08;11.95;;;11.40;;
19521;SDS011;9905;52.126;5.596;2024-02-26T00:07:34;12.18;;;11.57;;
19521;SDS011;9905;52.126;5.596;2024-02-26T00:10:02;11.93;;;11.38;;
19521;SDS011;9905;52.126;5.596;2024-02-26T00:12:29;11.50;;;10.90;;
19521;SDS011;9905;52.126;5.596;2024-02-26T00:14:56;11.85;;;11.25;;
19521;SDS011;9905;52.126;5.596;2024-02-26T00:17:23;11.95;;;11.40;;
19521;SDS011;9905;52.126;5.596;2024-02-26T00:19:50;12.90;;;12.30;;
19521;SDS011;9905;52.126;5.596;2024-02-26T00:22:19;12.32;;;11.60;;
19521;SDS011;9905;52.126;5.596;2024-02-26T00:24:47;12.77;;;12.18;;
19521;SDS011;9905;52.126;5.596;2024-02-26T00:27:13;12.52;;;12.00;;
19521;SDS011;9905;52.126;5.596;2024-02-26T00:29:40;12.25;;;11.75;;
19521;SDS011;9905;52.126;5.596;2024-02-26T00:32:07;13.55;;;12.68;;
19521;SDS011;9905;52.126;5.596;2024-02-26T00:34:33;12.25;;;11.65;;
19521;SDS011;9905;52.126;5.596;2024-02-26T00:37:01;12.27;;;11.77;;
19521;SDS011;9905;52.126;5.596;2024-02-26T00:39:29;12.70;;;12.10;;
19521;SDS011;9905;52.126;5.596;2024-02-26T00:41:56;12.35;;;11.85;;
19521;SDS011;9905;52.126;5.596;2024-02-26T00:44:23;13.43;;;12.55;;
19521;SDS011;9905;52.126;5.596;2024-02-26T00:46:49;12.40;;;11.90;;
19521;SDS011;9905;52.126;5.596;2024-02-26T00:49:16;13.45;;;12.85;;
19521;SDS011;9905;52.126;5.596;2024-02-26T00:51:43;13.57;;;12.90;;
19521;SDS011;9905;52.126;5.596;2024-02-26T00:54:10;12.05;;;11.55;;
19521;SDS011;9905;52.126;5.596;2024-02-26T00:56:38;12.48;;;11.95;;
19521;SDS011;9905;52.126;5.596;2024-02-26T00:59:04;13.10;;;12.43;;
19521;SDS011;9905;52.126;5.596;2024-02-26T01:01:31;13.73;;;13.02;;
19521;SDS011;9905;52.126;5.596;2024-02-26T01:03:58;12.93;;;12.32;;
19521;SDS011;9905;52.126;5.596;2024-02-26T01:06:25;13.60;;;13.00;;
19521;SDS011;9905;52.126;5.596;2024-02-26T01:08:51;13.73;;;13.02;;
19521;SDS011;9905;52.126;5.596;2024-02-26T01:11:18;13.43;;;12.82;;
19521;SDS011;9905;52.126;5.596;2024-02-26T01:13:46;12.77;;;12.15;;
19521;SDS011;9905;52.126;5.596;2024-02-26T01:16:13;12.95;;;12.27;;
19521;SDS011;9905;52.126;5.596;2024-02-26T01:18:40;14.20;;;13.50;;
19521;SDS011;9905;52.126;5.596;2024-02-26T01:21:06;12.95;;;12.27;;
19521;SDS011;9905;52.126;5.596;2024-02-26T01:23:34;13.27;;;12.45;;
19521;SDS011;9905;52.126;5.596;2024-02-26T01:26:00;14.82;;;13.90;;
19521;SDS011;9905;52.126;5.596;2024-02-26T01:28:29;13.40;;;12.73;;
19521;SDS011;9905;52.126;5.596;2024-02-26T01:30:57;14.63;;;13.82;;
19521;SDS011;9905;52.126;5.596;2024-02-26T01:33:25;13.98;;;13.27;;
19521;SDS011;9905;52.126;5.596;2024-02-26T01:35:52;13.45;;;12.68;;
19521;SDS011;9905;52.126;5.596;2024-02-26T01:38:19;14.10;;;13.38;;
19521;SDS011;9905;52.126;5.596;2024-02-26T01:40:45;14.27;;;13.40;;
19521;SDS011;9905;52.126;5.596;2024-02-26T01:43:12;14.27;;;13.68;;
19521;SDS011;9905;52.126;5.596;2024-02-26T01:45:39;14.57;;;13.77;;
19521;SDS011;9905;52.126;5.596;2024-02-26T01:48:07;13.32;;;12.65;;
19521;SDS011;9905;52.126;5.596;2024-02-26T01:50:35;14.95;;;13.80;;
19521;SDS011;9905;52.126;5.596;2024-02-26T01:53:03;15.07;;;13.80;;
19521;SDS011;9905;52.126;5.596;2024-02-26T01:55:31;15.00;;;14.15;;
19521;SDS011;9905;52.126;5.596;2024-02-26T01:57:58;15.05;;;14.15;;
19521;SDS011;9905;52.126;5.596;2024-02-26T02:00:25;14.45;;;13.65;;
19521;SDS011;9905;52.126;5.596;2024-02-26T02:02:52;15.15;;;14.25;;
19521;SDS011;9905;52.126;5.596;2024-02-26T02:05:21;15.00;;;14.00;;
19521;SDS011;9905;52.126;5.596;2024-02-26T02:07:48;15.23;;;14.32;;
19521;SDS011;9905;52.126;5.596;2024-02-26T02:10:16;14.60;;;13.80;;
19521;SDS011;9905;52.126;5.596;2024-02-26T02:12:47;15.82;;;14.82;;
19521;SDS011;9905;52.126;5.596;2024-02-26T02:15:14;14.75;;;13.95;;
19521;SDS011;9905;52.126;5.596;2024-02-26T02:17:41;15.60;;;14.48;;
19521;SDS011;9905;52.126;5.596;2024-02-26T02:20:08;15.30;;;14.43;;
19521;SDS011;9905;52.126;5.596;2024-02-26T02:22:37;15.60;;;14.60;;
19521;SDS011;9905;52.126;5.596;2024-02-26T02:25:04;15.45;;;14.55;;
19521;SDS011;9905;52.126;5.596;2024-02-26T02:27:31;15.25;;;14.23;;
19521;SDS011;9905;52.126;5.596;2024-02-26T02:29:58;15.65;;;14.77;;
19521;SDS011;9905;52.126;5.596;2024-02-26T02:32:25;15.10;;;14.25;;
19521;SDS011;9905;52.126;5.596;2024-02-26T02:34:53;13.63;;;12.93;;
19521;SDS011;9905;52.126;5.596;2024-02-26T02:37:20;15.43;;;14.57;;
19521;SDS011;9905;52.126;5.596;2024-02-26T02:39:48;14.52;;;13.65;;
19521;SDS011;9905;52.126;5.596;2024-02-26T02:42:15;14.88;;;14.07;;
19521;SDS011;9905;52.126;5.596;2024-02-26T02:44:42;15.18;;;14.15;;
19521;SDS011;9905;52.126;5.596;2024-02-26T02:47:09;15.52;;;14.52;;
19521;SDS011;9905;52.126;5.596;2024-02-26T02:49:36;14.90;;;14.00;;
19521;SDS011;9905;52.126;5.596;2024-02-26T02:52:03;14.88;;;14.00;;
19521;SDS011;9905;52.126;5.596;2024-02-26T02:54:30;15.10;;;14.20;;
19521;SDS011;9905;52.126;5.596;2024-02-26T02:56:59;14.38;;;13.68;;
19521;SDS011;9905;52.126;5.596;2024-02-26T02:59:25;14.23;;;13.50;;
19521;SDS011;9905;52.126;5.596;2024-02-26T03:01:53;14.85;;;13.88;;
19521;SDS011;9905;52.126;5.596;2024-02-26T03:04:19;14.02;;;13.32;;
19521;SDS011;9905;52.126;5.596;2024-02-26T03:06:46;13.52;;;12.93;;
19521;SDS011;9905;52.126;5.596;2024-02-26T03:09:13;14.10;;;13.30;;
19521;SDS011;9905;52.126;5.596;2024-02-26T03:11:40;15.35;;;14.52;;
19521;SDS011;9905;52.126;5.596;2024-02-26T03:14:08;14.07;;;13.18;;
19521;SDS011;9905;52.126;5.596;2024-02-26T03:16:35;14.40;;;13.40;;
19521;SDS011;9905;52.126;5.596;2024-02-26T03:19:02;14.88;;;14.00;;
19521;SDS011;9905;52.126;5.596;2024-02-26T03:21:29;14.43;;;13.48;;
19521;SDS011;9905;52.126;5.596;2024-02-26T03:23:55;13.98;;;13.15;;
19521;SDS011;9905;52.126;5.596;2024-02-26T03:26:22;14.50;;;13.60;;
19521;SDS011;9905;52.126;5.596;2024-02-26T03:28:49;14.30;;;13.50;;
19521;SDS011;9905;52.126;5.596;2024-02-26T03:31:17;14.70;;;13.80;;
19521;SDS011;9905;52.126;5.596;2024-02-26T03:33:44;16.13;;;15.13;;
19521;SDS011;9905;52.126;5.596;2024-02-26T03:36:11;14.38;;;13.30;;
19521;SDS011;9905;52.126;5.596;2024-02-26T03:38:38;14.07;;;13.18;;
19521;SDS011;9905;52.126;5.596;2024-02-26T03:41:05;14.48;;;13.48;;
19521;SDS011;9905;52.126;5.596;2024-02-26T03:43:33;14.70;;;13.60;;
19521;SDS011;9905;52.126;5.596;2024-02-26T03:46:00;14.57;;;13.38;;
19521;SDS011;9905;52.126;5.596;2024-02-26T03:48:28;14.43;;;13.40;;
19521;SDS011;9905;52.126;5.596;2024-02-26T03:50:57;16.20;;;15.05;;
19521;SDS011;9905;52.126;5.596;2024-02-26T03:53:24;14.75;;;13.75;;
19521;SDS011;9905;52.126;5.596;2024-02-26T03:55:50;14.90;;;14.00;;
19521;SDS011;9905;52.126;5.596;2024-02-26T03:58:17;14.90;;;13.98;;
19521;SDS011;9905;52.126;5.596;2024-02-26T04:00:44;14.80;;;13.90;;
19521;SDS011;9905;52.126;5.596;2024-02-26T04:03:12;15.85;;;14.82;;
19521;SDS011;9905;52.126;5.596;2024-02-26T04:05:40;15.35;;;14.25;;
19521;SDS011;9905;52.126;5.596;2024-02-26T04:08:07;15.27;;;14.38;;
19521;SDS011;9905;52.126;5.596;2024-02-26T04:10:35;14.30;;;13.40;;
19521;SDS011;9905;52.126;5.596;2024-02-26T04:13:03;15.38;;;14.38;;
19521;SDS011;9905;52.126;5.596;2024-02-26T04:15:30;15.00;;;14.00;;
19521;SDS011;9905;52.126;5.596;2024-02-26T04:17:57;14.73;;;13.82;;
19521;SDS011;9905;52.126;5.596;2024-02-26T04:20:24;14.45;;;13.45;;
19521;SDS011;9905;52.126;5.596;2024-02-26T04:22:52;14.43;;;13.50;;
19521;SDS011;9905;52.126;5.596;2024-02-26T04:25:18;15.77;;;14.65;;
19521;SDS011;9905;52.126;5.596;2024-02-26T04:27:45;14.90;;;13.90;;
19521;SDS011;9905;52.126;5.596;2024-02-26T04:30:12;15.90;;;14.73;;
19521;SDS011;9905;52.126;5.596;2024-02-26T04:32:39;16.00;;;15.00;;
19521;SDS011;9905;52.126;5.596;2024-02-26T04:35:06;15.38;;;14.38;;
19521;SDS011;9905;52.126;5.596;2024-02-26T04:37:33;14.88;;;14.07;;
19521;SDS011;9905;52.126;5.596;2024-02-26T04:40:01;15.77;;;14.68;;
19521;SDS011;9905;52.126;5.596;2024-02-26T04:42:29;15.00;;;13.65;;
19521;SDS011;9905;52.126;5.596;2024-02-26T04:44:56;14.02;;;13.23;;
19521;SDS011;9905;52.126;5.596;2024-02-26T04:47:23;14.50;;;13.25;;
19521;SDS011;9905;52.126;5.596;2024-02-26T04:49:50;14.95;;;13.85;;
19521;SDS011;9905;52.126;5.596;2024-02-26T04:52:17;15.15;;;14.15;;
19521;SDS011;9905;52.126;5.596;2024-02-26T04:54:44;14.75;;;13.77;;
19521;SDS011;9905;52.126;5.596;2024-02-26T04:57:13;15.40;;;14.05;;
19521;SDS011;9905;52.126;5.596;2024-02-26T04:59:40;17.08;;;15.88;;
19521;SDS011;9905;52.126;5.596;2024-02-26T05:02:07;17.17;;;16.02;;
19521;SDS011;9905;52.126;5.596;2024-02-26T05:04:35;16.30;;;15.23;;
19521;SDS011;9905;52.126;5.596;2024-02-26T05:07:02;15.10;;;14.02;;
19521;SDS011;9905;52.126;5.596;2024-02-26T05:09:29;13.85;;;13.00;;
19521;SDS011;9905;52.126;5.596;2024-02-26T05:11:55;14.98;;;13.88;;
19521;SDS011;9905;52.126;5.596;2024-02-26T05:14:24;14.77;;;13.73;;
19521;SDS011;9905;52.126;5.596;2024-02-26T05:16:50;14.55;;;13.65;;
19521;SDS011;9905;52.126;5.596;2024-02-26T05:19:17;14.88;;;13.98;;
19521;SDS011;9905;52.126;5.596;2024-02-26T05:21:44;16.48;;;15.38;;
19521;SDS011;9905;52.126;5.596;2024-02-26T05:24:12;14.45;;;13.55;;
19521;SDS011;9905;52.126;5.596;2024-02-26T05:26:40;15.80;;;14.57;;
19521;SDS011;9905;52.126;5.596;2024-02-26T05:29:07;15.98;;;14.43;;
19521;SDS011;9905;52.126;5.596;2024-02-26T05:31:35;14.50;;;13.60;;
19521;SDS011;9905;52.126;5.596;2024-02-26T05:34:02;14.70;;;13.70;;
19521;SDS011;9905;52.126;5.596;2024-02-26T05:36:28;14.13;;;13.20;;
19521;SDS011;9905;52.126;5.596;2024-02-26T05:38:58;15.38;;;14.27;;
19521;SDS011;9905;52.126;5.596;2024-02-26T05:41:25;15.68;;;14.65;;
19521;SDS011;9905;52.126;5.596;2024-02-26T05:43:52;15.13;;;14.13;;
19521;SDS011;9905;52.126;5.596;2024-02-26T05:46:18;15.35;;;14.25;;
19521;SDS011;9905;52.126;5.596;2024-02-26T05:48:48;16.63;;;15.52;;
19521;SDS011;9905;52.126;5.596;2024-02-26T05:51:16;17.60;;;16.45;;
19521;SDS011;9905;52.126;5.596;2024-02-26T05:53:43;15.88;;;14.75;;
19521;SDS011;9905;52.126;5.596;2024-02-26T05:56:10;15.02;;;14.07;;
19521;SDS011;9905;52.126;5.596;2024-02-26T05:58:37;16.27;;;15.18;;
19521;SDS011;9905;52.126;5.596;2024-02-26T06:01:03;15.45;;;14.35;;
19521;SDS011;9905;52.126;5.596;2024-02-26T06:03:30;15.45;;;14.35;;
19521;SDS011;9905;52.126;5.596;2024-02-26T06:05:58;17.27;;;15.80;;
19521;SDS011;9905;52.126;5.596;2024-02-26T06:08:25;16.98;;;15.43;;
19521;SDS011;9905;52.126;5.596;2024-02-26T06:10:52;16.20;;;15.02;;
19521;SDS011;9905;52.126;5.596;2024-02-26T06:13:19;16.63;;;15.43;;
19521;SDS011;9905;52.126;5.596;2024-02-26T06:15:45;17.23;;;15.63;;
19521;SDS011;9905;52.126;5.596;2024-02-26T06:18:13;18.08;;;16.48;;
19521;SDS011;9905;52.126;5.596;2024-02-26T06:20:40;17.67;;;16.27;;
19521;SDS011;9905;52.126;5.596;2024-02-26T06:23:08;17.85;;;16.45;;
19521;SDS011;9905;52.126;5.596;2024-02-26T06:25:35;18.20;;;16.70;;
19521;SDS011;9905;52.126;5.596;2024-02-26T06:28:01;17.05;;;15.75;;
19521;SDS011;9905;52.126;5.596;2024-02-26T06:30:28;18.75;;;17.05;;
19521;SDS011;9905;52.126;5.596;2024-02-26T06:32:55;18.35;;;16.58;;
19521;SDS011;9905;52.126;5.596;2024-02-26T06:35:22;16.95;;;15.55;;
19521;SDS011;9905;52.126;5.596;2024-02-26T06:37:49;18.95;;;17.33;;
19521;SDS011;9905;52.126;5.596;2024-02-26T06:40:19;18.30;;;16.58;;
19521;SDS011;9905;52.126;5.596;2024-02-26T06:42:46;19.75;;;17.95;;
19521;SDS011;9905;52.126;5.596;2024-02-26T06:45:12;20.75;;;18.50;;
19521;SDS011;9905;52.126;5.596;2024-02-26T06:47:39;20.48;;;18.50;;
19521;SDS011;9905;52.126;5.596;2024-02-26T06:50:06;20.27;;;18.30;;
19521;SDS011;9905;52.126;5.596;2024-02-26T06:52:33;20.08;;;18.05;;
19521;SDS011;9905;52.126;5.596;2024-02-26T06:55:01;21.05;;;19.13;;
19521;SDS011;9905;52.126;5.596;2024-02-26T06:57:29;20.85;;;18.95;;
19521;SDS011;9905;52.126;5.596;2024-02-26T06:59:56;18.73;;;17.05;;
19521;SDS011;9905;52.126;5.596;2024-02-26T07:02:24;19.38;;;17.67;;
19521;SDS011;9905;52.126;5.596;2024-02-26T07:04:51;20.35;;;18.30;;
19521;SDS011;9905;52.126;5.596;2024-02-26T07:07:17;20.65;;;18.85;;
19521;SDS011;9905;52.126;5.596;2024-02-26T07:09:44;21.48;;;19.33;;
19521;SDS011;9905;52.126;5.596;2024-02-26T07:12:11;21.73;;;19.52;;
19521;SDS011;9905;52.126;5.596;2024-02-26T07:14:40;21.73;;;19.52;;
19521;SDS011;9905;52.126;5.596;2024-02-26T07:17:07;21.33;;;19.23;;
19521;SDS011;9905;52.126;5.596;2024-02-26T07:19:34;21.83;;;19.63;;
19521;SDS011;9905;52.126;5.596;2024-02-26T07:22:00;23.75;;;19.48;;
19521;SDS011;9905;52.126;5.596;2024-02-26T07:24:27;23.27;;;20.67;;
19521;SDS011;9905;52.126;5.596;2024-02-26T07:26:54;23.05;;;20.55;;
19521;SDS011;9905;52.126;5.596;2024-02-26T07:29:21;23.55;;;21.02;;
19521;SDS011;9905;52.126;5.596;2024-02-26T07:31:49;25.00;;;21.33;;
19521;SDS011;9905;52.126;5.596;2024-02-26T07:34:15;23.70;;;20.90;;
19521;SDS011;9905;52.126;5.596;2024-02-26T07:36:42;24.05;;;21.45;;
19521;SDS011;9905;52.126;5.596;2024-02-26T07:39:09;27.75;;;22.77;;
19521;SDS011;9905;52.126;5.596;2024-02-26T07:41:36;26.35;;;23.15;;
19521;SDS011;9905;52.126;5.596;2024-02-26T07:44:04;27.52;;;23.45;;
19521;SDS011;9905;52.126;5.596;2024-02-26T07:46:30;28.58;;;23.60;;
19521;SDS011;9905;52.126;5.596;2024-02-26T07:48:58;26.60;;;21.60;;
19521;SDS011;9905;52.126;5.596;2024-02-26T07:51:25;24.58;;;22.13;;
19521;SDS011;9905;52.126;5.596;2024-02-26T07:53:52;26.80;;;23.88;;
19521;SDS011;9905;52.126;5.596;2024-02-26T07:56:19;25.45;;;22.73;;
19521;SDS011;9905;52.126;5.596;2024-02-26T07:58:45;25.48;;;22.77;;
19521;SDS011;9905;52.126;5.596;2024-02-26T08:01:12;30.45;;;23.60;;
19521;SDS011;9905;52.126;5.596;2024-02-26T08:03:39;29.58;;;23.92;;
19521;SDS011;9905;52.126;5.596;2024-02-26T08:06:08;28.95;;;24.90;;
19521;SDS011;9905;52.126;5.596;2024-02-26T08:08:35;26.88;;;23.92;;
19521;SDS011;9905;52.126;5.596;2024-02-26T08:11:03;26.17;;;23.45;;
19521;SDS011;9905;52.126;5.596;2024-02-26T08:13:30;28.88;;;24.20;;
19521;SDS011;9905;52.126;5.596;2024-02-26T08:15:56;27.95;;;25.05;;
19521;SDS011;9905;52.126;5.596;2024-02-26T08:18:24;26.27;;;23.17;;
19521;SDS011;9905;52.126;5.596;2024-02-26T08:20:50;26.15;;;23.65;;
19521;SDS011;9905;52.126;5.596;2024-02-26T08:23:18;26.38;;;23.55;;
19521;SDS011;9905;52.126;5.596;2024-02-26T08:25:45;23.25;;;20.83;;
19521;SDS011;9905;52.126;5.596;2024-02-26T08:28:12;25.23;;;22.65;;
19521;SDS011;9905;52.126;5.596;2024-02-26T08:30:39;25.30;;;22.70;;
19521;SDS011;9905;52.126;5.596;2024-02-26T08:33:06;23.60;;;21.27;;
19521;SDS011;9905;52.126;5.596;2024-02-26T08:35:33;24.02;;;21.65;;
19521;SDS011;9905;52.126;5.596;2024-02-26T08:38:00;22.92;;;20.70;;
19521;SDS011;9905;52.126;5.596;2024-02-26T08:40:29;23.90;;;21.35;;
19521;SDS011;9905;52.126;5.596;2024-02-26T08:42:55;22.77;;;20.77;;
19521;SDS011;9905;52.126;5.596;2024-02-26T08:45:22;22.02;;;19.98;;
19521;SDS011;9905;52.126;5.596;2024-02-26T08:47:49;20.73;;;18.92;;
19521;SDS011;9905;52.126;5.596;2024-02-26T08:50:16;21.67;;;19.80;;
19521;SDS011;9905;52.126;5.596;2024-02-26T08:52:43;20.52;;;18.83;;
19521;SDS011;9905;52.126;5.596;2024-02-26T08:55:13;20.35;;;18.50;;
19521;SDS011;9905;52.126;5.596;2024-02-26T08:57:42;21.05;;;19.27;;
19521;SDS011;9905;52.126;5.596;2024-02-26T09:00:09;21.15;;;19.48;;
19521;SDS011;9905;52.126;5.596;2024-02-26T09:02:37;19.52;;;17.88;;
19521;SDS011;9905;52.126;5.596;2024-02-26T09:05:05;18.98;;;17.58;;
19521;SDS011;9905;52.126;5.596;2024-02-26T09:07:32;19.52;;;18.00;;
19521;SDS011;9905;52.126;5.596;2024-02-26T09:09:58;19.38;;;17.55;;
19521;SDS011;9905;52.126;5.596;2024-02-26T09:12:25;19.63;;;18.20;;
19521;SDS011;9905;52.126;5.596;2024-02-26T09:14:53;18.98;;;17.48;;
19521;SDS011;9905;52.126;5.596;2024-02-26T09:17:21;19.98;;;18.25;;
19521;SDS011;9905;52.126;5.596;2024-02-26T09:19:48;19.55;;;17.88;;
19521;SDS011;9905;52.126;5.596;2024-02-26T09:22:14;18.17;;;17.05;;
19521;SDS011;9905;52.126;5.596;2024-02-26T09:24:41;20.02;;;18.42;;
19521;SDS011;9905;52.126;5.596;2024-02-26T09:27:08;18.95;;;17.55;;
19521;SDS011;9905;52.126;5.596;2024-02-26T09:29:35;18.63;;;17.10;;
19521;SDS011;9905;52.126;5.596;2024-02-26T09:32:03;20.05;;;18.60;;
19521;SDS011;9905;52.126;5.596;2024-02-26T09:34:30;18.50;;;17.05;;
19521;SDS011;9905;52.126;5.596;2024-02-26T09:36:58;17.98;;;16.73;;
19521;SDS011;9905;52.126;5.596;2024-02-26T09:39:25;18.33;;;17.02;;
19521;SDS011;9905;52.126;5.596;2024-02-26T09:41:52;19.58;;;17.85;;
19521;SDS011;9905;52.126;5.596;2024-02-26T09:44:19;18.67;;;17.48;;
19521;SDS011;9905;52.126;5.596;2024-02-26T09:46:46;18.63;;;17.15;;
19521;SDS011;9905;52.126;5.596;2024-02-26T09:49:15;17.60;;;16.40;;
19521;SDS011;9905;52.126;5.596;2024-02-26T09:51:42;17.90;;;16.70;;
19521;SDS011;9905;52.126;5.596;2024-02-26T09:54:09;17.40;;;16.17;;
19521;SDS011;9905;52.126;5.596;2024-02-26T09:56:39;16.90;;;15.60;;
19521;SDS011;9905;52.126;5.596;2024-02-26T09:59:10;17.17;;;16.05;;
19521;SDS011;9905;52.126;5.596;2024-02-26T10:01:39;17.63;;;16.38;;
19521;SDS011;9905;52.126;5.596;2024-02-26T10:04:08;16.88;;;15.75;;
19521;SDS011;9905;52.126;5.596;2024-02-26T10:06:37;16.77;;;15.57;;
19521;SDS011;9905;52.126;5.596;2024-02-26T10:09:04;16.95;;;15.95;;
19521;SDS011;9905;52.126;5.596;2024-02-26T10:11:34;17.77;;;16.67;;
19521;SDS011;9905;52.126;5.596;2024-02-26T10:14:03;16.90;;;15.90;;
19521;SDS011;9905;52.126;5.596;2024-02-26T10:16:30;16.75;;;15.73;;
19521;SDS011;9905;52.126;5.596;2024-02-26T10:18:58;17.27;;;16.08;;
19521;SDS011;9905;52.126;5.596;2024-02-26T10:21:25;17.67;;;16.45;;
19521;SDS011;9905;52.126;5.596;2024-02-26T10:23:53;17.88;;;16.77;;
19521;SDS011;9905;52.126;5.596;2024-02-26T10:26:20;18.17;;;16.98;;
19521;SDS011;9905;52.126;5.596;2024-02-26T10:28:47;18.13;;;16.92;;
19521;SDS011;9905;52.126;5.596;2024-02-26T10:31:14;18.95;;;17.65;;
19521;SDS011;9905;52.126;5.596;2024-02-26T10:33:41;18.73;;;17.48;;
19521;SDS011;9905;52.126;5.596;2024-02-26T10:36:09;17.52;;;16.45;;
19521;SDS011;9905;52.126;5.596;2024-02-26T10:38:36;16.30;;;15.30;;
19521;SDS011;9905;52.126;5.596;2024-02-26T10:41:05;17.83;;;16.80;;
19521;SDS011;9905;52.126;5.596;2024-02-26T10:43:33;17.80;;;16.65;;
19521;SDS011;9905;52.126;5.596;2024-02-26T10:46:00;16.85;;;15.77;;
19521;SDS011;9905;52.126;5.596;2024-02-26T10:48:27;18.63;;;17.42;;
19521;SDS011;9905;52.126;5.596;2024-02-26T10:50:53;18.02;;;16.35;;
19521;SDS011;9905;52.126;5.596;2024-02-26T10:53:22;17.70;;;16.55;;
19521;SDS011;9905;52.126;5.596;2024-02-26T10:55:52;17.23;;;16.17;;
19521;SDS011;9905;52.126;5.596;2024-02-26T10:58:22;16.23;;;15.13;;
19521;SDS011;9905;52.126;5.596;2024-02-26T11:00:50;16.92;;;16.02;;
19521;SDS011;9905;52.126;5.596;2024-02-26T11:03:17;16.88;;;15.85;;
19521;SDS011;9905;52.126;5.596;2024-02-26T11:05:45;16.88;;;15.88;;
19521;SDS011;9905;52.126;5.596;2024-02-26T11:08:14;15.50;;;14.50;;
19521;SDS011;9905;52.126;5.596;2024-02-26T11:10:41;17.70;;;16.60;;
19521;SDS011;9905;52.126;5.596;2024-02-26T11:13:09;16.80;;;15.80;;
19521;SDS011;9905;52.126;5.596;2024-02-26T11:15:41;15.52;;;14.73;;
19521;SDS011;9905;52.126;5.596;2024-02-26T11:18:09;15.98;;;15.00;;
19521;SDS011;9905;52.126;5.596;2024-02-26T11:20:38;15.25;;;14.43;;
19521;SDS011;9905;52.126;5.596;2024-02-26T11:23:07;16.35;;;15.45;;
19521;SDS011;9905;52.126;5.596;2024-02-26T11:25:34;15.77;;;14.88;;
19521;SDS011;9905;52.126;5.596;2024-02-26T11:28:02;16.80;;;15.80;;
19521;SDS011;9905;52.126;5.596;2024-02-26T11:30:33;16.55;;;15.18;;
19521;SDS011;9905;52.126;5.596;2024-02-26T11:33:05;17.05;;;15.75;;
19521;SDS011;9905;52.126;5.596;2024-02-26T11:35:33;16.60;;;15.65;;
19521;SDS011;9905;52.126;5.596;2024-02-26T11:38:02;16.50;;;15.60;;
19521;SDS011;9905;52.126;5.596;2024-02-26T11:40:32;16.50;;;15.60;;
19521;SDS011;9905;52.126;5.596;2024-02-26T11:42:59;17.58;;;16.50;;
19521;SDS011;9905;52.126;5.596;2024-02-26T11:45:47;18.83;;;17.73;;
19521;SDS011;9905;52.126;5.596;2024-02-26T11:48:21;16.63;;;15.63;;
19521;SDS011;9905;52.126;5.596;2024-02-26T11:50:49;18.20;;;17.20;;
19521;SDS011;9905;52.126;5.596;2024-02-26T11:53:19;17.52;;;16.52;;
19521;SDS011;9905;52.126;5.596;2024-02-26T11:55:46;17.58;;;16.48;;
19521;SDS011;9905;52.126;5.596;2024-02-26T11:58:13;17.63;;;16.52;;
19521;SDS011;9905;52.126;5.596;2024-02-26T12:00:40;19.85;;;18.45;;
19521;SDS011;9905;52.126;5.596;2024-02-26T12:03:07;16.80;;;15.80;;
19521;SDS011;9905;52.126;5.596;2024-02-26T12:05:38;17.75;;;16.35;;
19521;SDS011;9905;52.126;5.596;2024-02-26T12:08:06;16.65;;;15.65;;
19521;SDS011;9905;52.126;5.596;2024-02-26T12:10:34;15.75;;;14.75;;
19521;SDS011;9905;52.126;5.596;2024-02-26T12:13:05;17.30;;;16.20;;
19521;SDS011;9905;52.126;5.596;2024-02-26T12:15:34;16.17;;;15.23;;
19521;SDS011;9905;52.126;5.596;2024-02-26T12:18:04;17.27;;;16.27;;
19521;SDS011;9905;52.126;5.596;2024-02-26T12:20:32;16.83;;;15.93;;
19521;SDS011;9905;52.126;5.596;2024-02-26T12:23:01;16.30;;;15.38;;
19521;SDS011;9905;52.126;5.596;2024-02-26T12:25:29;17.85;;;16.77;;
19521;SDS011;9905;52.126;5.596;2024-02-26T12:27:57;15.55;;;14.75;;
19521;SDS011;9905;52.126;5.596;2024-02-26T12:30:25;18.42;;;17.23;;
19521;SDS011;9905;52.126;5.596;2024-02-26T12:32:54;16.55;;;15.55;;
19521;SDS011;9905;52.126;5.596;2024-02-26T12:35:23;16.95;;;15.77;;
19521;SDS011;9905;52.126;5.596;2024-02-26T12:37:50;17.67;;;16.73;;
19521;SDS011;9905;52.126;5.596;2024-02-26T12:40:20;17.20;;;16.17;;
19521;SDS011;9905;52.126;5.596;2024-02-26T12:42:47;16.25;;;15.35;;
19521;SDS011;9905;52.126;5.596;2024-02-26T12:45:14;16.92;;;16.02;;
19521;SDS011;9905;52.126;5.596;2024-02-26T12:47:41;18.90;;;17.77;;
19521;SDS011;9905;52.126;5.596;2024-02-26T12:50:10;18.23;;;17.33;;
19521;SDS011;9905;52.126;5.596;2024-02-26T12:52:38;17.70;;;16.80;;
19521;SDS011;9905;52.126;5.596;2024-02-26T12:55:06;17.63;;;16.63;;
19521;SDS011;9905;52.126;5.596;2024-02-26T12:57:36;17.23;;;16.23;;
19521;SDS011;9905;52.126;5.596;2024-02-26T13:00:04;18.63;;;17.55;;
19521;SDS011;9905;52.126;5.596;2024-02-26T13:02:34;16.15;;;15.25;;
19521;SDS011;9905;52.126;5.596;2024-02-26T13:05:02;16.85;;;15.77;;
19521;SDS011;9905;52.126;5.596;2024-02-26T13:07:29;17.17;;;16.17;;
19521;SDS011;9905;52.126;5.596;2024-02-26T13:09:58;17.92;;;16.70;;
19521;SDS011;9905;52.126;5.596;2024-02-26T13:12:25;16.67;;;15.75;;
19521;SDS011;9905;52.126;5.596;2024-02-26T13:14:59;17.45;;;16.45;;
19521;SDS011;9905;52.126;5.596;2024-02-26T13:17:26;17.33;;;16.42;;
19521;SDS011;9905;52.126;5.596;2024-02-26T13:19:53;16.02;;;15.13;;
19521;SDS011;9905;52.126;5.596;2024-02-26T13:22:20;17.80;;;16.60;;
19521;SDS011;9905;52.126;5.596;2024-02-26T13:24:53;16.95;;;15.77;;
19521;SDS011;9905;52.126;5.596;2024-02-26T13:27:20;15.93;;;14.93;;
19521;SDS011;9905;52.126;5.596;2024-02-26T13:29:48;16.63;;;15.50;;
19521;SDS011;9905;52.126;5.596;2024-02-26T13:32:16;16.20;;;15.20;;
19521;SDS011;9905;52.126;5.596;2024-02-26T13:34:42;15.65;;;14.75;;
19521;SDS011;9905;52.126;5.596;2024-02-26T13:37:09;16.10;;;15.10;;
19521;SDS011;9905;52.126;5.596;2024-02-26T13:39:36;15.60;;;14.77;;
19521;SDS011;9905;52.126;5.596;2024-02-26T13:42:05;15.18;;;14.38;;
19521;SDS011;9905;52.126;5.596;2024-02-26T13:44:36;15.63;;;14.73;;
19521;SDS011;9905;52.126;5.596;2024-02-26T13:47:05;15.10;;;14.30;;
19521;SDS011;9905;52.126;5.596;2024-02-26T13:49:33;16.30;;;15.50;;
19521;SDS011;9905;52.126;5.596;2024-02-26T13:52:00;15.30;;;14.40;;
19521;SDS011;9905;52.126;5.596;2024-02-26T13:54:27;15.65;;;14.68;;
19521;SDS011;9905;52.126;5.596;2024-02-26T13:56:54;15.52;;;14.70;;
19521;SDS011;9905;52.126;5.596;2024-02-26T13:59:20;16.67;;;15.68;;
19521;SDS011;9905;52.126;5.596;2024-02-26T14:01:47;16.50;;;15.50;;
19521;SDS011;9905;52.126;5.596;2024-02-26T14:04:14;16.00;;;15.10;;
19521;SDS011;9905;52.126;5.596;2024-02-26T14:06:43;15.65;;;14.68;;
19521;SDS011;9905;52.126;5.596;2024-02-26T14:09:10;15.18;;;14.27;;
19521;SDS011;9905;52.126;5.596;2024-02-26T14:11:43;15.07;;;14.27;;
19521;SDS011;9905;52.126;5.596;2024-02-26T14:14:10;15.57;;;14.52;;
19521;SDS011;9905;52.126;5.596;2024-02-26T14:16:37;14.00;;;13.30;;
19521;SDS011;9905;52.126;5.596;2024-02-26T14:19:04;13.40;;;12.70;;
19521;SDS011;9905;52.126;5.596;2024-02-26T14:21:31;13.98;;;13.07;;
19521;SDS011;9905;52.126;5.596;2024-02-26T14:23:59;13.88;;;13.18;;
19521;SDS011;9905;52.126;5.596;2024-02-26T14:26:25;13.43;;;12.73;;
19521;SDS011;9905;52.126;5.596;2024-02-26T14:28:53;13.20;;;12.35;;
19521;SDS011;9905;52.126;5.596;2024-02-26T14:31:21;14.13;;;13.43;;
19521;SDS011;9905;52.126;5.596;2024-02-26T14:33:48;11.57;;;10.95;;